createdAt,value
2018-07-22T00:00:02.103Z,1007.01
2018-07-22T00:01:02.125Z,1007.03
2018-07-22T00:02:02.137Z,1007.03
2018-07-22T00:03:02.154Z,1007.03
2018-07-22T00:04:02.176Z,1007.04
2018-07-22T00:05:02.188Z,1007.03
2018-07-22T00:06:02.204Z,1007.07
2018-07-22T00:07:02.223Z,1007.05
2018-07-22T00:08:02.240Z,1007.04
2018-07-22T00:09:02.259Z,1006.97
2018-07-22T00:10:02.274Z,1007.01
2018-07-22T00:11:02.298Z,1007.00
2018-07-22T00:12:02.313Z,1007.01
2018-07-22T00:13:02.327Z,1007.00
2018-07-22T00:14:02.392Z,1006.97
2018-07-22T00:15:02.358Z,1006.97
2018-07-22T00:16:02.376Z,1006.93
2018-07-22T00:17:02.399Z,1006.95
2018-07-22T00:18:02.409Z,1006.94
2018-07-22T00:19:02.425Z,1006.96
2018-07-22T00:20:02.444Z,1006.94
2018-07-22T00:21:02.462Z,1006.94
2018-07-22T00:22:02.478Z,1006.94
2018-07-22T00:23:02.494Z,1006.94
2018-07-22T00:24:02.521Z,1006.96
2018-07-22T00:25:02.527Z,1006.97
2018-07-22T00:26:02.544Z,1006.94
2018-07-22T00:27:02.568Z,1006.96
2018-07-22T00:28:02.653Z,1006.93
2018-07-22T00:29:02.596Z,1006.97
2018-07-22T00:30:02.623Z,1006.93
2018-07-22T00:31:02.630Z,1006.89
2018-07-22T00:32:02.648Z,1006.91
2018-07-22T00:33:02.678Z,1006.93
2018-07-22T00:34:02.680Z,1006.92
2018-07-22T00:35:02.697Z,1006.96
2018-07-22T00:36:02.713Z,1006.94
2018-07-22T00:37:02.731Z,1006.99
2018-07-22T00:38:02.746Z,1007.01
2018-07-22T00:39:02.765Z,1007.02
2018-07-22T00:40:02.782Z,1007.06
2018-07-22T00:41:02.803Z,1007.09
2018-07-22T00:42:02.820Z,1007.04
2018-07-22T00:43:02.832Z,1007.05
2018-07-22T00:44:02.849Z,1007.05
2018-07-22T00:45:02.867Z,1007.07
2018-07-22T00:46:02.883Z,1007.06
2018-07-22T00:47:02.899Z,1007.07
2018-07-22T00:48:02.917Z,1007.05
2018-07-22T00:49:02.952Z,1007.04
2018-07-22T00:50:02.957Z,1007.04
2018-07-22T00:51:02.988Z,1007.01
2018-07-22T00:52:02.985Z,1007.07
2018-07-22T00:53:03.001Z,1007.06
2018-07-22T00:54:03.020Z,1007.02
2018-07-22T00:55:03.037Z,1007.06
2018-07-22T00:56:03.051Z,1007.08
2018-07-22T00:57:03.071Z,1007.02
2018-07-22T00:58:03.088Z,1007.01
2018-07-22T00:59:03.152Z,1006.99
2018-07-22T01:00:03.305Z,1007.02
2018-07-22T01:01:03.341Z,1007.01
2018-07-22T01:02:03.403Z,1007.03
2018-07-22T01:03:03.180Z,1007.02
2018-07-22T01:04:03.186Z,1006.99
2018-07-22T01:05:03.206Z,1007.03
2018-07-22T01:06:03.224Z,1006.99
2018-07-22T01:07:03.235Z,1006.99
2018-07-22T01:08:03.252Z,1007.00
2018-07-22T01:09:03.271Z,1007.05
2018-07-22T01:10:03.286Z,1007.01
2018-07-22T01:11:03.707Z,1006.99
2018-07-22T01:12:03.319Z,1007.02
2018-07-22T01:13:03.337Z,1006.97
2018-07-22T01:14:03.359Z,1006.98
2018-07-22T01:15:03.393Z,1006.93
2018-07-22T01:16:03.397Z,1006.92
2018-07-22T01:17:03.404Z,1006.95
2018-07-22T01:18:03.421Z,1006.97
2018-07-22T01:19:03.436Z,1006.96
2018-07-22T01:20:03.459Z,1006.98
2018-07-22T01:21:03.471Z,1006.94
2018-07-22T01:22:03.627Z,1006.96
2018-07-22T01:23:03.519Z,1006.94
2018-07-22T01:24:03.521Z,1006.91
2018-07-22T01:25:03.542Z,1006.95
2018-07-22T01:26:03.556Z,1006.94
2018-07-22T01:27:03.570Z,1006.95
2018-07-22T01:28:03.595Z,1006.96
2018-07-22T01:29:03.757Z,1006.96
2018-07-22T01:30:03.983Z,1006.95
2018-07-22T01:31:03.645Z,1006.99
2018-07-22T01:32:03.656Z,1007.01
2018-07-22T01:33:03.673Z,1007.02
2018-07-22T01:34:03.696Z,1007.01
2018-07-22T01:35:03.702Z,1007.00
2018-07-22T01:36:03.723Z,1006.98
2018-07-22T01:37:03.812Z,1006.99
2018-07-22T01:38:03.821Z,1006.95
2018-07-22T01:39:03.771Z,1006.98
2018-07-22T01:40:03.787Z,1006.95
2018-07-22T01:41:03.823Z,1006.97
2018-07-22T01:42:03.821Z,1007.00
2018-07-22T01:43:03.835Z,1006.99
2018-07-22T01:44:03.854Z,1007.00
2018-07-22T01:45:03.873Z,1007.01
2018-07-22T01:46:03.886Z,1007.01
2018-07-22T01:47:03.903Z,1007.01
2018-07-22T01:48:03.919Z,1007.01
2018-07-22T01:49:03.935Z,1007.01
2018-07-22T01:50:03.957Z,1006.99
2018-07-22T01:51:03.968Z,1007.01
2018-07-22T01:52:03.985Z,1007.00
2018-07-22T01:53:04.001Z,1007.00
2018-07-22T01:54:04.026Z,1007.01
2018-07-22T01:55:04.034Z,1007.03
2018-07-22T01:56:04.057Z,1007.08
2018-07-22T01:57:04.069Z,1007.02
2018-07-22T01:58:04.092Z,1007.03
2018-07-22T01:59:04.103Z,1007.04
2018-07-22T02:00:04.118Z,1007.09
2018-07-22T02:01:04.134Z,1007.08
2018-07-22T02:02:04.153Z,1007.07
2018-07-22T02:03:04.174Z,1007.06
2018-07-22T02:04:04.185Z,1007.10
2018-07-22T02:05:04.287Z,1007.10
2018-07-22T02:06:04.234Z,1007.12
2018-07-22T02:07:04.257Z,1007.11
2018-07-22T02:08:04.251Z,1007.13
2018-07-22T02:09:04.271Z,1007.09
2018-07-22T02:10:04.288Z,1007.14
2018-07-22T02:11:04.314Z,1007.07
2018-07-22T02:12:04.316Z,1007.07
2018-07-22T02:13:04.341Z,1007.05
2018-07-22T02:14:04.350Z,1007.08
2018-07-22T02:15:04.366Z,1007.07
2018-07-22T02:16:04.382Z,1007.07
2018-07-22T02:17:04.400Z,1007.11
2018-07-22T02:18:04.416Z,1007.06
2018-07-22T02:19:04.435Z,1007.07
2018-07-22T02:20:04.468Z,1007.06
2018-07-22T02:21:04.465Z,1007.08
2018-07-22T02:22:04.488Z,1007.09
2018-07-22T02:23:04.510Z,1007.11
2018-07-22T02:24:04.517Z,1007.11
2018-07-22T02:25:04.534Z,1007.06
2018-07-22T02:26:04.554Z,1007.06
2018-07-22T02:27:04.566Z,1007.07
2018-07-22T02:28:04.582Z,1007.08
2018-07-22T02:29:04.597Z,1007.09
2018-07-22T02:30:04.619Z,1007.11
2018-07-22T02:31:04.638Z,1007.11
2018-07-22T02:32:04.647Z,1007.09
2018-07-22T02:33:04.664Z,1007.12
2018-07-22T02:34:04.679Z,1007.11
2018-07-22T02:35:04.696Z,1007.10
2018-07-22T02:36:04.715Z,1007.10
2018-07-22T02:37:04.729Z,1007.11
2018-07-22T02:39:04.871Z,1007.12
2018-07-22T02:40:04.885Z,1007.13
2018-07-22T02:41:05.196Z,1007.10
2018-07-22T02:42:04.888Z,1007.14
2018-07-22T02:43:04.869Z,1007.14
2018-07-22T02:44:04.850Z,1007.17
2018-07-22T02:45:04.864Z,1007.18
2018-07-22T02:46:04.893Z,1007.24
2018-07-22T02:47:04.897Z,1007.24
2018-07-22T02:48:04.910Z,1007.28
2018-07-22T02:49:04.929Z,1007.30
2018-07-22T02:50:04.944Z,1007.25
2018-07-22T02:51:04.959Z,1007.23
2018-07-22T02:52:04.976Z,1007.25
2018-07-22T02:53:04.993Z,1007.26
2018-07-22T02:54:05.018Z,1007.24
2018-07-22T02:55:05.027Z,1007.28
2018-07-22T02:56:05.049Z,1007.33
2018-07-22T02:57:05.074Z,1007.29
2018-07-22T02:58:05.096Z,1007.35
2018-07-22T02:59:05.185Z,1007.36
2018-07-22T03:00:05.150Z,1007.37
2018-07-22T03:01:05.123Z,1007.37
2018-07-22T03:02:05.141Z,1007.40
2018-07-22T03:03:05.176Z,1007.34
2018-07-22T03:04:05.171Z,1007.36
2018-07-22T03:05:05.196Z,1007.35
2018-07-22T03:06:05.243Z,1007.36
2018-07-22T03:07:05.225Z,1007.37
2018-07-22T03:08:05.251Z,1007.38
2018-07-22T03:09:05.255Z,1007.43
2018-07-22T03:10:05.273Z,1007.43
2018-07-22T03:11:05.291Z,1007.42
2018-07-22T03:12:05.304Z,1007.42
2018-07-22T03:13:05.326Z,1007.41
2018-07-22T03:14:05.385Z,1007.39
2018-07-22T03:15:05.356Z,1007.37
2018-07-22T03:16:05.376Z,1007.38
2018-07-22T03:17:05.387Z,1007.38
2018-07-22T03:18:05.415Z,1007.35
2018-07-22T03:19:05.426Z,1007.36
2018-07-22T03:20:05.437Z,1007.32
2018-07-22T03:21:05.452Z,1007.32
2018-07-22T03:22:05.473Z,1007.33
2018-07-22T03:23:05.484Z,1007.34
2018-07-22T03:24:05.505Z,1007.36
2018-07-22T03:25:06.516Z,1007.43
2018-07-22T03:26:05.534Z,1007.41
2018-07-22T03:27:05.557Z,1007.43
2018-07-22T03:28:05.567Z,1007.43
2018-07-22T03:29:05.594Z,1007.44
2018-07-22T03:30:05.603Z,1007.47
2018-07-22T03:31:05.617Z,1007.49
2018-07-22T03:32:05.655Z,1007.55
2018-07-22T03:33:05.661Z,1007.56
2018-07-22T03:34:05.668Z,1007.58
2018-07-22T03:35:05.681Z,1007.54
2018-07-22T03:36:05.696Z,1007.54
2018-07-22T03:37:05.717Z,1007.55
2018-07-22T03:38:05.735Z,1007.56
2018-07-22T03:39:05.746Z,1007.57
2018-07-22T03:40:05.780Z,1007.56
2018-07-22T03:41:05.783Z,1007.60
2018-07-22T03:42:05.805Z,1007.58
2018-07-22T03:43:05.820Z,1007.58
2018-07-22T03:45:05.871Z,1007.62
2018-07-22T03:46:05.897Z,1007.60
2018-07-22T03:47:05.880Z,1007.65
2018-07-22T03:48:05.902Z,1007.64
2018-07-22T03:49:05.916Z,1007.64
2018-07-22T03:50:05.927Z,1007.64
2018-07-22T03:51:05.949Z,1007.65
2018-07-22T03:52:05.982Z,1007.68
2018-07-22T03:53:05.983Z,1007.71
2018-07-22T03:54:05.994Z,1007.71
2018-07-22T03:55:06.016Z,1007.72
2018-07-22T03:56:06.042Z,1007.76
2018-07-22T03:57:06.051Z,1007.75
2018-07-22T03:58:06.069Z,1007.77
2018-07-22T03:59:06.077Z,1007.77
2018-07-22T04:00:06.090Z,1007.78
2018-07-22T04:01:06.286Z,1007.77
2018-07-22T04:02:06.122Z,1007.77
2018-07-22T04:03:06.142Z,1007.76
2018-07-22T04:04:06.161Z,1007.75
2018-07-22T04:05:06.665Z,1007.78
2018-07-22T04:06:06.311Z,1007.81
2018-07-22T04:07:06.255Z,1007.82
2018-07-22T04:08:06.229Z,1007.82
2018-07-22T04:09:06.239Z,1007.84
2018-07-22T04:10:06.256Z,1007.80
2018-07-22T04:11:06.272Z,1007.81
2018-07-22T04:12:06.289Z,1007.78
2018-07-22T04:13:06.308Z,1007.79
2018-07-22T04:14:06.324Z,1007.81
2018-07-22T04:15:06.343Z,1007.84
2018-07-22T04:16:06.361Z,1007.87
2018-07-22T04:17:06.369Z,1007.87
2018-07-22T04:18:06.388Z,1007.85
2018-07-22T04:19:06.460Z,1007.91
2018-07-22T04:20:06.617Z,1007.91
2018-07-22T04:21:06.436Z,1007.92
2018-07-22T04:22:06.451Z,1007.90
2018-07-22T04:23:06.467Z,1007.90
2018-07-22T04:24:06.484Z,1007.91
2018-07-22T04:25:06.508Z,1007.91
2018-07-22T04:26:06.519Z,1007.86
2018-07-22T04:27:06.532Z,1007.84
2018-07-22T04:28:06.568Z,1007.89
2018-07-22T04:29:06.570Z,1007.83
2018-07-22T04:30:06.581Z,1007.84
2018-07-22T04:31:06.614Z,1007.88
2018-07-22T04:32:06.615Z,1007.89
2018-07-22T04:33:06.634Z,1007.87
2018-07-22T04:34:06.649Z,1007.87
2018-07-22T04:35:06.665Z,1007.85
2018-07-22T04:36:06.687Z,1007.89
2018-07-22T04:37:06.707Z,1007.83
2018-07-22T04:38:06.718Z,1007.84
2018-07-22T04:39:06.754Z,1007.84
2018-07-22T04:40:06.749Z,1007.85
2018-07-22T04:41:06.765Z,1007.84
2018-07-22T04:42:06.778Z,1007.84
2018-07-22T04:43:06.817Z,1007.83
2018-07-22T04:44:06.811Z,1007.85
2018-07-22T04:45:06.828Z,1007.84
2018-07-22T04:46:06.843Z,1007.83
2018-07-22T04:47:06.864Z,1007.80
2018-07-22T04:48:06.877Z,1007.86
2018-07-22T04:50:07.074Z,1007.84
2018-07-22T04:51:07.033Z,1007.87
2018-07-22T04:52:06.942Z,1007.89
2018-07-22T04:53:06.961Z,1007.91
2018-07-22T04:54:06.975Z,1007.95
2018-07-22T04:55:06.993Z,1007.98
2018-07-22T04:56:07.010Z,1007.97
2018-07-22T04:57:07.033Z,1007.96
2018-07-22T04:58:07.060Z,1007.99
2018-07-22T04:59:07.138Z,1007.97
2018-07-22T05:00:07.079Z,1007.96
2018-07-22T05:01:07.088Z,1008.00
2018-07-22T05:02:07.110Z,1008.02
2018-07-22T05:03:07.123Z,1008.02
2018-07-22T05:04:07.148Z,1008.02
2018-07-22T05:05:07.179Z,1008.04
2018-07-22T05:06:07.170Z,1008.06
2018-07-22T05:07:07.193Z,1008.05
2018-07-22T05:08:07.204Z,1008.08
2018-07-22T05:09:07.225Z,1008.06
2018-07-22T05:10:07.238Z,1008.08
2018-07-22T05:11:07.260Z,1008.07
2018-07-22T05:12:07.284Z,1008.06
2018-07-22T05:13:07.289Z,1008.14
2018-07-22T05:14:07.312Z,1008.13
2018-07-22T05:15:07.320Z,1008.14
2018-07-22T05:16:07.335Z,1008.17
2018-07-22T05:17:07.354Z,1008.17
2018-07-22T05:18:07.375Z,1008.23
2018-07-22T05:19:07.382Z,1008.22
2018-07-22T05:20:07.410Z,1008.25
2018-07-22T05:21:07.414Z,1008.19
2018-07-22T05:22:07.435Z,1008.23
2018-07-22T05:23:07.517Z,1008.18
2018-07-22T05:24:07.554Z,1008.23
2018-07-22T05:25:07.502Z,1008.21
2018-07-22T05:26:07.514Z,1008.22
2018-07-22T05:27:07.515Z,1008.22
2018-07-22T05:28:07.530Z,1008.18
2018-07-22T05:29:07.559Z,1008.18
2018-07-22T05:30:07.565Z,1008.20
2018-07-22T05:31:07.582Z,1008.25
2018-07-22T05:32:07.621Z,1008.22
2018-07-22T05:33:07.639Z,1008.24
2018-07-22T05:34:07.631Z,1008.26
2018-07-22T05:35:07.651Z,1008.28
2018-07-22T05:36:07.693Z,1008.23
2018-07-22T05:37:07.683Z,1008.26
2018-07-22T05:38:07.785Z,1008.26
2018-07-22T05:39:07.805Z,1008.30
2018-07-22T05:40:07.755Z,1008.31
2018-07-22T05:41:07.781Z,1008.32
2018-07-22T05:42:07.805Z,1008.33
2018-07-22T05:43:07.787Z,1008.33
2018-07-22T05:44:07.789Z,1008.33
2018-07-22T05:45:07.809Z,1008.35
2018-07-22T05:46:08.269Z,1008.35
2018-07-22T05:47:07.850Z,1008.37
2018-07-22T05:48:07.880Z,1008.39
2018-07-22T05:49:07.876Z,1008.41
2018-07-22T05:50:07.884Z,1008.41
2018-07-22T05:51:07.902Z,1008.42
2018-07-22T05:52:07.918Z,1008.43
2018-07-22T05:53:07.941Z,1008.40
2018-07-22T05:54:07.954Z,1008.42
2018-07-22T05:55:07.966Z,1008.38
2018-07-22T05:56:07.984Z,1008.38
2018-07-22T05:57:08.000Z,1008.42
2018-07-22T05:58:08.098Z,1008.40
2018-07-22T05:59:08.062Z,1008.41
2018-07-22T06:00:08.054Z,1008.42
2018-07-22T06:01:08.071Z,1008.46
2018-07-22T06:02:08.094Z,1008.51
2018-07-22T06:03:08.120Z,1008.50
2018-07-22T06:04:08.115Z,1008.53
2018-07-22T06:05:08.133Z,1008.59
2018-07-22T06:06:08.148Z,1008.58
2018-07-22T06:07:08.164Z,1008.62
2018-07-22T06:08:08.186Z,1008.63
2018-07-22T06:09:08.513Z,1008.66
2018-07-22T06:10:08.230Z,1008.67
2018-07-22T06:11:08.237Z,1008.69
2018-07-22T06:12:08.295Z,1008.71
2018-07-22T06:13:08.270Z,1008.74
2018-07-22T06:14:08.278Z,1008.74
2018-07-22T06:15:08.303Z,1008.74
2018-07-22T06:16:08.328Z,1008.74
2018-07-22T06:17:08.330Z,1008.73
2018-07-22T06:18:08.345Z,1008.71
2018-07-22T06:19:08.367Z,1008.67
2018-07-22T06:20:08.430Z,1008.73
2018-07-22T06:21:08.396Z,1008.68
2018-07-22T06:22:08.413Z,1008.70
2018-07-22T06:23:08.428Z,1008.67
2018-07-22T06:24:08.449Z,1008.71
2018-07-22T06:25:08.466Z,1008.67
2018-07-22T06:26:08.477Z,1008.69
2018-07-22T06:27:08.495Z,1008.68
2018-07-22T06:28:08.510Z,1008.71
2018-07-22T06:29:08.528Z,1008.72
2018-07-22T06:30:08.543Z,1008.73
2018-07-22T06:31:08.561Z,1008.70
2018-07-22T06:32:08.576Z,1008.77
2018-07-22T06:33:08.700Z,1008.76
2018-07-22T06:34:08.675Z,1008.74
2018-07-22T06:35:08.677Z,1008.74
2018-07-22T06:36:08.644Z,1008.73
2018-07-22T06:37:08.662Z,1008.73
2018-07-22T06:38:08.687Z,1008.75
2018-07-22T06:39:08.693Z,1008.72
2018-07-22T06:40:08.710Z,1008.75
2018-07-22T06:41:08.791Z,1008.67
2018-07-22T06:42:08.749Z,1008.70
2018-07-22T06:43:08.760Z,1008.69
2018-07-22T06:44:08.785Z,1008.73
2018-07-22T06:45:08.800Z,1008.73
2018-07-22T06:46:08.859Z,1008.75
2018-07-22T06:47:08.847Z,1008.74
2018-07-22T06:48:08.845Z,1008.77
2018-07-22T06:49:08.859Z,1008.81
2018-07-22T06:50:08.874Z,1008.81
2018-07-22T06:51:08.890Z,1008.86
2018-07-22T06:52:08.907Z,1008.88
2018-07-22T06:53:08.926Z,1008.87
2018-07-22T06:54:08.955Z,1008.84
2018-07-22T06:55:08.966Z,1008.86
2018-07-22T06:56:08.980Z,1008.86
2018-07-22T06:57:09.047Z,1008.92
2018-07-22T06:58:09.006Z,1008.90
2018-07-22T06:59:09.029Z,1008.91
2018-07-22T07:00:09.042Z,1008.93
2018-07-22T07:01:09.059Z,1008.95
2018-07-22T07:02:09.074Z,1008.93
2018-07-22T07:03:09.102Z,1008.97
2018-07-22T07:04:09.111Z,1008.91
2018-07-22T07:05:09.269Z,1008.94
2018-07-22T07:06:09.140Z,1008.95
2018-07-22T07:07:09.361Z,1008.96
2018-07-22T07:08:09.187Z,1008.99
2018-07-22T07:09:09.202Z,1008.96
2018-07-22T07:10:09.213Z,1008.96
2018-07-22T07:11:09.227Z,1008.95
2018-07-22T07:12:09.243Z,1008.97
2018-07-22T07:13:09.260Z,1008.98
2018-07-22T07:14:09.279Z,1008.97
2018-07-22T07:15:09.299Z,1009.00
2018-07-22T07:16:09.331Z,1009.01
2018-07-22T07:17:09.329Z,1008.98
2018-07-22T07:18:09.344Z,1009.04
2018-07-22T07:19:09.364Z,1008.99
2018-07-22T07:20:09.379Z,1009.03
2018-07-22T07:21:09.399Z,1009.07
2018-07-22T07:22:09.412Z,1009.07
2018-07-22T07:23:09.431Z,1009.05
2018-07-22T07:24:09.450Z,1009.04
2018-07-22T07:25:09.467Z,1009.06
2018-07-22T07:26:09.482Z,1009.11
2018-07-22T07:27:09.499Z,1009.08
2018-07-22T07:28:09.514Z,1009.08
2018-07-22T07:29:09.540Z,1009.09
2018-07-22T07:30:09.567Z,1009.14
2018-07-22T07:31:09.567Z,1009.18
2018-07-22T07:32:09.605Z,1009.13
2018-07-22T07:33:09.602Z,1009.11
2018-07-22T07:34:09.630Z,1009.12
2018-07-22T07:35:09.639Z,1009.11
2018-07-22T07:36:09.654Z,1009.13
2018-07-22T07:37:09.668Z,1009.16
2018-07-22T07:38:09.686Z,1009.14
2018-07-22T07:39:09.708Z,1009.15
2018-07-22T07:40:09.874Z,1009.13
2018-07-22T07:41:09.737Z,1009.12
2018-07-22T07:42:09.980Z,1009.14
2018-07-22T07:43:09.847Z,1009.13
2018-07-22T07:44:10.099Z,1009.10
2018-07-22T07:45:09.807Z,1009.13
2018-07-22T07:46:09.829Z,1009.13
2018-07-22T07:47:09.839Z,1009.13
2018-07-22T07:48:09.862Z,1009.11
2018-07-22T07:49:09.876Z,1009.16
2018-07-22T07:50:09.895Z,1009.16
2018-07-22T07:51:09.920Z,1009.17
2018-07-22T07:52:09.935Z,1009.18
2018-07-22T07:53:09.946Z,1009.17
2018-07-22T07:54:09.969Z,1009.15
2018-07-22T07:55:09.980Z,1009.20
2018-07-22T07:56:09.995Z,1009.19
2018-07-22T07:57:10.014Z,1009.18
2018-07-22T07:58:10.032Z,1009.19
2018-07-22T07:59:10.051Z,1009.20
2018-07-22T08:00:10.073Z,1009.21
2018-07-22T08:01:10.085Z,1009.22
2018-07-22T08:02:10.106Z,1009.18
2018-07-22T08:03:10.117Z,1009.23
2018-07-22T08:04:10.141Z,1009.21
2018-07-22T08:05:10.215Z,1009.19
2018-07-22T08:06:10.175Z,1009.22
2018-07-22T08:07:10.189Z,1009.23
2018-07-22T08:08:10.206Z,1009.18
2018-07-22T08:09:10.251Z,1009.23
2018-07-22T08:10:10.244Z,1009.23
2018-07-22T08:11:10.327Z,1009.27
2018-07-22T08:12:10.293Z,1009.26
2018-07-22T08:13:10.299Z,1009.26
2018-07-22T08:14:10.313Z,1009.25
2018-07-22T08:15:10.328Z,1009.24
2018-07-22T08:16:10.351Z,1009.24
2018-07-22T08:17:10.366Z,1009.20
2018-07-22T08:18:10.384Z,1009.22
2018-07-22T08:19:10.515Z,1009.19
2018-07-22T08:20:10.423Z,1009.19
2018-07-22T08:21:10.436Z,1009.26
2018-07-22T08:22:10.542Z,1009.26
2018-07-22T08:23:10.473Z,1009.25
2018-07-22T08:24:10.487Z,1009.25
2018-07-22T08:25:10.509Z,1009.30
2018-07-22T08:26:10.563Z,1009.30
2018-07-22T08:27:10.598Z,1009.29
2018-07-22T08:28:10.559Z,1009.30
2018-07-22T08:29:10.878Z,1009.29
2018-07-22T08:30:10.598Z,1009.30
2018-07-22T08:31:10.615Z,1009.27
2018-07-22T08:32:10.635Z,1009.25
2018-07-22T08:33:10.647Z,1009.27
2018-07-22T08:34:10.665Z,1009.27
2018-07-22T08:35:10.686Z,1009.27
2018-07-22T08:36:10.700Z,1009.31
2018-07-22T08:37:10.723Z,1009.35
2018-07-22T08:38:10.768Z,1009.32
2018-07-22T08:39:10.757Z,1009.29
2018-07-22T08:40:10.774Z,1009.29
2018-07-22T08:41:10.811Z,1009.26
2018-07-22T08:42:10.808Z,1009.32
2018-07-22T08:43:10.834Z,1009.37
2018-07-22T08:44:10.858Z,1009.39
2018-07-22T08:45:10.878Z,1009.38
2018-07-22T08:46:10.882Z,1009.37
2018-07-22T08:47:10.898Z,1009.33
2018-07-22T08:48:10.917Z,1009.34
2018-07-22T08:49:10.933Z,1009.38
2018-07-22T08:50:10.952Z,1009.36
2018-07-22T08:51:10.974Z,1009.39
2018-07-22T08:52:10.992Z,1009.41
2018-07-22T08:53:11.035Z,1009.36
2018-07-22T08:54:11.028Z,1009.33
2018-07-22T08:56:11.420Z,1009.35
2018-07-22T08:57:12.743Z,1009.36
2018-07-22T08:58:11.904Z,1009.36
2018-07-22T08:59:11.176Z,1009.36
2018-07-22T09:00:11.370Z,1009.42
2018-07-22T09:03:12.667Z,1009.43
2018-07-22T09:04:13.269Z,1009.41
2018-07-22T09:06:11.379Z,1009.42
2018-07-22T09:07:11.264Z,1009.39
2018-07-22T09:09:12.981Z,1009.38
2018-07-22T09:11:11.595Z,1009.44
2018-07-22T09:12:11.388Z,1009.39
2018-07-22T09:13:12.332Z,1009.41
2018-07-22T09:14:13.860Z,1009.35
2018-07-22T09:15:11.657Z,1009.37
2018-07-22T09:16:11.938Z,1009.41
2018-07-22T09:17:11.452Z,1009.44
2018-07-22T09:19:11.687Z,1009.48
2018-07-22T09:20:14.017Z,1009.47
2018-07-22T09:22:12.227Z,1009.52
2018-07-22T09:23:12.807Z,1009.49
2018-07-22T09:25:12.108Z,1009.54
2018-07-22T09:27:12.196Z,1009.55
2018-07-22T09:28:12.040Z,1009.56
2018-07-22T09:29:11.670Z,1009.50
2018-07-22T09:30:11.681Z,1009.50
2018-07-22T09:31:11.708Z,1009.50
2018-07-22T09:32:11.718Z,1009.50
2018-07-22T09:33:12.169Z,1009.50
2018-07-22T09:36:12.604Z,1009.54
2018-07-22T09:37:11.970Z,1009.60
2018-07-22T09:38:11.841Z,1009.57
2018-07-22T09:39:11.905Z,1009.63
2018-07-22T09:40:11.919Z,1009.57
2018-07-22T09:42:12.013Z,1009.60
2018-07-22T09:43:11.923Z,1009.66
2018-07-22T09:44:11.942Z,1009.61
2018-07-22T09:45:12.046Z,1009.58
2018-07-22T09:46:11.982Z,1009.62
2018-07-22T09:47:12.001Z,1009.64
2018-07-22T09:48:12.192Z,1009.60
2018-07-22T09:49:12.861Z,1009.65
2018-07-22T09:50:12.157Z,1009.67
2018-07-22T09:51:12.078Z,1009.66
2018-07-22T09:52:12.107Z,1009.63
2018-07-22T09:53:12.915Z,1009.68
2018-07-22T09:54:12.810Z,1009.67
2018-07-22T09:56:12.759Z,1009.66
2018-07-22T09:57:12.195Z,1009.63
2018-07-22T09:59:12.259Z,1009.62
2018-07-22T10:00:12.387Z,1009.65
2018-07-22T10:01:12.809Z,1009.66
2018-07-22T10:02:12.421Z,1009.64
2018-07-22T10:03:12.315Z,1009.68
2018-07-22T10:04:12.386Z,1009.65
2018-07-22T10:05:12.339Z,1009.66
2018-07-22T10:06:12.374Z,1009.62
2018-07-22T10:07:13.062Z,1009.62
2018-07-22T10:08:12.794Z,1009.65
2018-07-22T10:09:12.466Z,1009.62
2018-07-22T10:10:13.121Z,1009.64
2018-07-22T10:11:12.494Z,1009.65
2018-07-22T10:12:12.641Z,1009.61
2018-07-22T10:13:12.721Z,1009.65
2018-07-22T10:15:12.976Z,1009.63
2018-07-22T10:16:13.122Z,1009.59
2018-07-22T10:17:12.753Z,1009.61
2018-07-22T10:18:12.945Z,1009.63
2018-07-22T10:19:12.661Z,1009.59
2018-07-22T10:20:12.735Z,1009.61
2018-07-22T10:21:13.787Z,1009.58
2018-07-22T10:22:12.664Z,1009.61
2018-07-22T10:23:12.733Z,1009.59
2018-07-22T10:24:12.904Z,1009.61
2018-07-22T10:25:12.785Z,1009.58
2018-07-22T10:26:12.747Z,1009.61
2018-07-22T10:27:12.766Z,1009.60
2018-07-22T10:28:12.776Z,1009.57
2018-07-22T10:29:12.798Z,1009.57
2018-07-22T10:30:12.818Z,1009.64
2018-07-22T10:31:12.834Z,1009.64
2018-07-22T10:32:12.858Z,1009.63
2018-07-22T10:33:12.971Z,1009.61
2018-07-22T10:34:12.957Z,1009.62
2018-07-22T10:35:12.923Z,1009.58
2018-07-22T10:36:14.188Z,1009.57
2018-07-22T10:37:13.075Z,1009.60
2018-07-22T10:38:13.181Z,1009.58
2018-07-22T10:39:13.196Z,1009.54
2018-07-22T10:40:13.009Z,1009.53
2018-07-22T10:41:13.190Z,1009.60
2018-07-22T10:42:14.363Z,1009.63
2018-07-22T10:44:13.358Z,1009.59
2018-07-22T10:45:15.624Z,1009.66
2018-07-22T10:46:13.330Z,1009.61
2018-07-22T10:47:14.028Z,1009.60
2018-07-22T10:48:13.311Z,1009.61
2018-07-22T10:49:14.236Z,1009.61
2018-07-22T10:50:14.415Z,1009.56
2018-07-22T10:51:13.923Z,1009.56
2018-07-22T10:52:13.298Z,1009.56
2018-07-22T10:53:13.295Z,1009.57
2018-07-22T10:54:13.291Z,1009.55
2018-07-22T10:55:13.303Z,1009.56
2018-07-22T10:56:13.431Z,1009.57
2018-07-22T10:58:14.289Z,1009.55
2018-07-22T10:59:13.614Z,1009.54
2018-07-22T11:00:14.061Z,1009.60
2018-07-22T11:01:14.402Z,1009.60
2018-07-22T11:02:14.193Z,1009.58
2018-07-22T11:03:13.669Z,1009.57
2018-07-22T11:04:13.709Z,1009.60
2018-07-22T11:05:13.608Z,1009.55
2018-07-22T11:06:13.730Z,1009.55
2018-07-22T11:07:13.648Z,1009.57
2018-07-22T11:08:13.564Z,1009.55
2018-07-22T11:09:14.072Z,1009.61
2018-07-22T11:13:13.947Z,1009.49
2018-07-22T11:14:14.873Z,1009.49
2018-07-22T11:15:13.923Z,1009.50
2018-07-22T11:16:13.768Z,1009.47
2018-07-22T11:17:13.763Z,1009.50
2018-07-22T11:18:13.769Z,1009.45
2018-07-22T11:19:13.788Z,1009.50
2018-07-22T11:20:13.808Z,1009.47
2018-07-22T11:21:13.867Z,1009.46
2018-07-22T11:22:14.120Z,1009.42
2018-07-22T11:23:14.338Z,1009.40
2018-07-22T11:24:14.601Z,1009.38
2018-07-22T11:26:14.770Z,1009.42
2018-07-22T11:27:14.350Z,1009.44
2018-07-22T11:28:14.263Z,1009.39
2018-07-22T11:30:14.154Z,1009.47
2018-07-22T11:31:14.031Z,1009.48
2018-07-22T11:32:15.085Z,1009.48
2018-07-22T11:33:14.072Z,1009.42
2018-07-22T11:34:14.190Z,1009.42
2018-07-22T11:35:14.393Z,1009.48
2018-07-22T11:36:14.384Z,1009.46
2018-07-22T11:37:14.485Z,1009.39
2018-07-22T11:38:15.048Z,1009.34
2018-07-22T11:39:14.811Z,1009.38
2018-07-22T11:41:15.251Z,1009.38
2018-07-22T11:42:14.878Z,1009.41
2018-07-22T11:43:14.282Z,1009.42
2018-07-22T11:44:14.307Z,1009.37
2018-07-22T11:45:14.325Z,1009.41
2018-07-22T11:46:14.381Z,1009.32
2018-07-22T11:47:14.395Z,1009.28
2018-07-22T11:48:14.660Z,1009.28
2018-07-22T11:49:14.517Z,1009.30
2018-07-22T11:50:14.508Z,1009.27
2018-07-22T11:51:14.455Z,1009.30
2018-07-22T11:53:15.412Z,1009.35
2018-07-22T11:54:15.875Z,1009.36
2018-07-22T11:55:15.105Z,1009.39
2018-07-22T11:56:14.782Z,1009.39
2018-07-22T11:57:14.875Z,1009.39
2018-07-22T11:58:14.613Z,1009.41
2018-07-22T11:59:15.274Z,1009.39
2018-07-22T12:00:14.959Z,1009.42
2018-07-22T12:01:15.028Z,1009.38
2018-07-22T12:02:14.861Z,1009.45
2018-07-22T12:03:14.750Z,1009.36
2018-07-22T12:04:14.753Z,1009.33
2018-07-22T12:05:14.743Z,1009.33
2018-07-22T12:06:14.763Z,1009.25
2018-07-22T12:07:14.879Z,1009.29
2018-07-22T12:08:14.839Z,1009.28
2018-07-22T12:09:14.859Z,1009.28
2018-07-22T12:10:14.845Z,1009.26
2018-07-22T12:12:15.821Z,1009.27
2018-07-22T12:13:15.587Z,1009.30
2018-07-22T12:14:15.847Z,1009.29
2018-07-22T12:16:15.088Z,1009.33
2018-07-22T12:18:16.864Z,1009.33
2018-07-22T12:19:17.175Z,1009.35
2018-07-22T12:20:15.057Z,1009.36
2018-07-22T12:21:15.092Z,1009.29
2018-07-22T12:22:17.037Z,1009.32
2018-07-22T12:23:15.376Z,1009.30
2018-07-22T12:26:15.249Z,1009.24
2018-07-22T12:27:15.243Z,1009.18
2018-07-22T12:29:16.304Z,1009.16
2018-07-22T12:30:17.175Z,1009.14
2018-07-22T12:32:15.465Z,1009.13
2018-07-22T12:33:15.692Z,1009.11
2018-07-22T12:34:15.623Z,1009.07
2018-07-22T12:35:15.421Z,1009.05
2018-07-22T12:36:16.289Z,1009.05
2018-07-22T12:37:16.793Z,1009.06
2018-07-22T12:38:15.564Z,1009.04
2018-07-22T12:39:16.571Z,1009.07
2018-07-22T12:40:16.494Z,1009.09